createdAt,value
2023-12-24T00:01:16.370Z,0.17
2023-12-24T00:03:43.278Z,0.30
2023-12-24T00:06:10.422Z,0.40
2023-12-24T00:08:37.675Z,0.40
2023-12-24T00:11:05.632Z,0.22
2023-12-24T00:13:33.330Z,0.25
2023-12-24T00:15:59.918Z,0.30
2023-12-24T00:18:26.764Z,0.30
2023-12-24T00:20:53.483Z,0.20
2023-12-24T00:23:20.088Z,0.40
2023-12-24T00:25:46.747Z,0.40
2023-12-24T00:28:13.744Z,0.32
2023-12-24T00:30:40.584Z,0.43
2023-12-24T00:33:07.347Z,0.20
2023-12-24T00:35:35.607Z,0.20
2023-12-24T00:38:02.503Z,0.20
2023-12-24T00:40:29.102Z,0.30
2023-12-24T00:42:55.942Z,0.20
2023-12-24T00:45:22.813Z,0.20
2023-12-24T00:47:49.934Z,0.30
2023-12-24T00:50:16.814Z,0.30
2023-12-24T00:52:43.491Z,0.17
2023-12-24T00:55:10.445Z,0.20
2023-12-24T00:57:38.850Z,0.30
2023-12-24T01:00:09.419Z,0.40
2023-12-24T01:02:36.310Z,0.30
2023-12-24T01:05:03.702Z,0.35
2023-12-24T01:07:30.333Z,0.30
2023-12-24T01:09:56.882Z,0.30
2023-12-24T01:12:23.917Z,0.20
2023-12-24T01:14:50.481Z,0.10
2023-12-24T01:17:17.232Z,0.22
2023-12-24T01:19:45.494Z,0.10
2023-12-24T01:22:12.073Z,0.30
2023-12-24T01:24:38.647Z,0.13
2023-12-24T01:27:05.792Z,0.10
2023-12-24T01:29:32.599Z,0.10
2023-12-24T01:31:59.307Z,0.20
2023-12-24T01:34:26.440Z,0.20
2023-12-24T01:36:53.398Z,0.20
2023-12-24T01:39:21.604Z,0.10
2023-12-24T01:41:48.817Z,0.20
2023-12-24T01:44:15.773Z,0.10
2023-12-24T01:46:42.550Z,0.10
2023-12-24T01:49:09.728Z,0.03
2023-12-24T01:51:36.673Z,0.20
2023-12-24T01:54:04.905Z,0.20
2023-12-24T01:56:33.349Z,0.10
2023-12-24T01:59:00.919Z,0.20
2023-12-24T02:01:28.632Z,0.10
2023-12-24T02:04:01.150Z,0.10
2023-12-24T02:06:28.366Z,0.10
2023-12-24T02:08:57.232Z,0.10
2023-12-24T02:11:24.105Z,0.10
2023-12-24T02:13:50.848Z,0.00
2023-12-24T02:16:20.897Z,0.10
2023-12-24T02:18:48.816Z,0.10
2023-12-24T02:21:15.452Z,0.30
2023-12-24T02:23:42.271Z,0.20
2023-12-24T02:26:23.384Z,0.20
2023-12-24T02:28:54.615Z,0.20
2023-12-24T02:31:27.929Z,0.17
2023-12-24T02:33:58.654Z,0.40
2023-12-24T02:36:26.464Z,0.30
2023-12-24T02:38:53.158Z,0.40
2023-12-24T02:41:19.965Z,0.40
2023-12-24T02:43:46.572Z,0.35
2023-12-24T02:46:13.439Z,0.50
2023-12-24T02:48:40.225Z,0.20
2023-12-24T02:51:06.889Z,0.38
2023-12-24T02:53:33.739Z,0.40
2023-12-24T02:56:01.420Z,0.30
2023-12-24T02:58:29.235Z,0.30
2023-12-24T03:00:55.940Z,0.32
2023-12-24T03:03:23.010Z,0.47
2023-12-24T03:05:49.705Z,0.38
2023-12-24T03:08:16.817Z,0.20
2023-12-24T03:10:43.526Z,0.40
2023-12-24T03:13:10.263Z,0.30
2023-12-24T03:15:36.802Z,0.30
2023-12-24T03:18:04.032Z,0.30
2023-12-24T03:20:30.885Z,0.30
2023-12-24T03:22:57.713Z,0.20
2023-12-24T03:25:24.704Z,0.30
2023-12-24T03:27:51.394Z,0.10
2023-12-24T03:30:19.147Z,0.28
2023-12-24T03:32:45.833Z,0.22
2023-12-24T03:35:12.763Z,0.20
2023-12-24T03:37:39.418Z,0.20
2023-12-24T03:40:06.603Z,0.20
2023-12-24T03:42:33.342Z,0.20
2023-12-24T03:45:00.487Z,0.15
2023-12-24T03:47:27.134Z,0.22
2023-12-24T03:49:53.760Z,0.10
2023-12-24T03:52:24.271Z,0.10
2023-12-24T03:54:50.834Z,0.20
2023-12-24T03:57:17.382Z,0.10
2023-12-24T03:59:44.249Z,0.10
2023-12-24T04:02:11.116Z,0.03
2023-12-24T04:04:37.918Z,0.10
2023-12-24T04:07:05.145Z,0.20
2023-12-24T04:09:33.022Z,0.30
2023-12-24T04:11:59.690Z,0.10
2023-12-24T04:14:26.744Z,0.25
2023-12-24T04:16:53.559Z,0.20
2023-12-24T04:19:20.286Z,0.20
2023-12-24T04:21:47.093Z,0.10
2023-12-24T04:24:13.970Z,0.20
2023-12-24T04:26:40.626Z,0.20
2023-12-24T04:29:07.298Z,0.20
2023-12-24T04:31:33.991Z,0.35
2023-12-24T04:34:00.982Z,0.22
2023-12-24T04:36:27.674Z,0.20
2023-12-24T04:38:54.314Z,0.20
2023-12-24T04:41:21.203Z,0.25
2023-12-24T04:43:47.900Z,0.20
2023-12-24T04:46:14.515Z,0.10
2023-12-24T04:51:07.981Z,0.30
2023-12-24T04:53:34.776Z,0.17
2023-12-24T04:56:01.546Z,0.25
2023-12-24T04:58:28.173Z,0.20
2023-12-24T05:00:54.964Z,0.17
2023-12-24T05:03:21.687Z,0.05
2023-12-24T05:05:48.732Z,0.10
2023-12-24T05:08:15.449Z,0.10
2023-12-24T05:10:42.603Z,0.20
2023-12-24T05:13:13.082Z,0.20
2023-12-24T05:15:39.745Z,0.20
2023-12-24T05:18:06.761Z,0.10
2023-12-24T05:20:33.985Z,0.38
2023-12-24T05:23:00.681Z,0.20
2023-12-24T05:25:27.295Z,0.10
2023-12-24T05:27:54.180Z,0.25
2023-12-24T05:30:20.807Z,0.10
2023-12-24T05:32:47.494Z,0.20
2023-12-24T05:35:14.473Z,0.10
2023-12-24T05:37:41.221Z,0.20
2023-12-24T05:40:08.322Z,0.20
2023-12-24T05:42:35.069Z,0.20
2023-12-24T05:45:01.878Z,0.13
2023-12-24T05:47:28.480Z,0.10
2023-12-24T05:49:55.181Z,0.40
2023-12-24T05:52:21.790Z,0.20
2023-12-24T05:54:48.785Z,0.10
2023-12-24T05:57:15.460Z,0.32
2023-12-24T05:59:42.370Z,0.10
2023-12-24T06:02:08.945Z,0.30
2023-12-24T06:04:35.676Z,0.20
2023-12-24T06:07:02.790Z,0.30
2023-12-24T06:09:29.615Z,0.30
2023-12-24T06:11:56.315Z,0.20
2023-12-24T06:14:22.893Z,0.30
2023-12-24T06:16:49.764Z,0.20
2023-12-24T06:19:18.257Z,0.30
2023-12-24T06:21:45.206Z,0.20
2023-12-24T06:24:12.400Z,0.25
2023-12-24T06:26:39.163Z,0.30
2023-12-24T06:29:05.988Z,0.30
2023-12-24T06:31:32.907Z,0.17
2023-12-24T06:33:59.802Z,0.20
2023-12-24T06:36:26.408Z,0.20
2023-12-24T06:38:53.161Z,0.20
2023-12-24T06:41:20.336Z,0.20
2023-12-24T06:43:46.896Z,0.20
2023-12-24T06:46:14.037Z,0.25
2023-12-24T06:48:41.174Z,0.25
2023-12-24T06:51:08.351Z,0.40
2023-12-24T06:53:36.013Z,0.50
2023-12-24T06:56:03.155Z,0.40
2023-12-24T06:58:29.756Z,0.30
2023-12-24T07:00:56.740Z,0.28
2023-12-24T07:03:23.653Z,0.20
2023-12-24T07:05:51.687Z,0.30
2023-12-24T07:08:18.461Z,0.10
2023-12-24T07:10:45.314Z,0.17
2023-12-24T07:13:11.866Z,0.30
2023-12-24T07:15:40.835Z,0.20
2023-12-24T07:18:08.856Z,0.20
2023-12-24T07:20:36.217Z,0.30
2023-12-24T07:23:03.391Z,0.20
2023-12-24T07:25:30.399Z,0.50
2023-12-24T07:27:56.989Z,0.40
2023-12-24T07:30:23.651Z,0.38
2023-12-24T07:32:50.681Z,0.40
2023-12-24T07:35:17.731Z,0.30
2023-12-24T07:37:44.391Z,0.30
2023-12-24T07:40:11.474Z,0.30
2023-12-24T07:42:38.960Z,0.40
2023-12-24T07:45:06.160Z,0.35
2023-12-24T07:47:33.078Z,0.60
2023-12-24T07:50:00.339Z,0.80
2023-12-24T07:52:26.993Z,0.60
2023-12-24T07:54:53.861Z,0.60
2023-12-24T07:57:20.609Z,0.43
2023-12-24T07:59:47.206Z,0.70
2023-12-24T08:02:14.052Z,0.50
2023-12-24T08:04:41.027Z,0.73
2023-12-24T08:07:07.783Z,0.50
2023-12-24T08:09:34.559Z,0.60
2023-12-24T08:12:01.334Z,0.57
2023-12-24T08:14:27.945Z,0.50
2023-12-24T08:16:54.931Z,0.52
2023-12-24T08:19:21.676Z,0.70
2023-12-24T08:21:48.331Z,0.65
2023-12-24T08:24:15.143Z,0.30
2023-12-24T08:26:42.499Z,0.60
2023-12-24T08:29:09.142Z,0.77
2023-12-24T08:31:35.883Z,0.50
2023-12-24T08:34:02.758Z,0.85
2023-12-24T08:36:29.528Z,2.42
2023-12-24T08:38:56.444Z,1.10
2023-12-24T08:41:23.036Z,0.68
2023-12-24T08:43:49.666Z,0.77
2023-12-24T08:46:16.318Z,0.40
2023-12-24T08:48:42.932Z,0.32
2023-12-24T08:51:09.560Z,0.68
2023-12-24T08:53:36.935Z,0.50
2023-12-24T08:56:03.709Z,0.40
2023-12-24T08:58:30.938Z,0.50
2023-12-24T09:01:02.825Z,0.45
2023-12-24T09:03:29.400Z,0.57
2023-12-24T09:05:56.102Z,0.40
2023-12-24T09:08:23.156Z,0.30
2023-12-24T09:10:49.893Z,0.50
2023-12-24T09:13:16.459Z,0.60
2023-12-24T09:15:43.575Z,0.30
2023-12-24T09:18:10.335Z,0.30
2023-12-24T09:20:37.004Z,0.50
2023-12-24T09:23:03.942Z,0.40
2023-12-24T09:25:30.526Z,0.30
2023-12-24T09:27:57.075Z,0.30
2023-12-24T09:30:25.700Z,0.40
2023-12-24T09:32:52.652Z,0.47
2023-12-24T09:35:19.438Z,0.43
2023-12-24T09:37:46.108Z,0.40
2023-12-24T09:40:13.038Z,0.60
2023-12-24T09:42:39.683Z,0.47
2023-12-24T09:45:07.068Z,0.75
2023-12-24T09:47:33.732Z,0.50
2023-12-24T09:50:02.232Z,0.68
2023-12-24T09:52:30.542Z,0.40
2023-12-24T09:54:57.298Z,0.40
2023-12-24T09:57:23.969Z,0.70
2023-12-24T09:59:50.807Z,0.60
2023-12-24T10:02:17.616Z,0.40
2023-12-24T10:04:44.540Z,0.45
2023-12-24T10:07:11.326Z,0.43
2023-12-24T10:09:51.035Z,0.22
2023-12-24T10:12:19.286Z,0.50
2023-12-24T10:14:59.269Z,0.60
2023-12-24T10:17:34.359Z,0.43
2023-12-24T10:20:06.121Z,0.40
2023-12-24T10:22:33.081Z,0.30
2023-12-24T10:25:05.305Z,0.40
2023-12-24T10:27:32.850Z,0.40
2023-12-24T10:30:17.893Z,0.50
2023-12-24T10:32:45.406Z,0.50
2023-12-24T10:35:13.094Z,0.60
2023-12-24T10:37:39.952Z,0.60
2023-12-24T10:40:09.857Z,0.45
2023-12-24T10:42:37.722Z,0.60
2023-12-24T10:45:08.844Z,0.70
2023-12-24T10:47:37.142Z,0.80
2023-12-24T10:50:05.036Z,0.52
2023-12-24T10:52:33.027Z,0.60
2023-12-24T10:55:02.053Z,0.70
2023-12-24T10:58:02.048Z,0.40
2023-12-24T11:00:28.946Z,0.50
2023-12-24T11:02:56.066Z,0.52
2023-12-24T11:05:49.997Z,0.55
2023-12-24T11:08:23.133Z,0.80
2023-12-24T11:11:08.631Z,0.52
2023-12-24T11:13:37.847Z,0.40
2023-12-24T11:16:07.281Z,0.57
2023-12-24T11:18:48.555Z,0.82
2023-12-24T11:21:20.919Z,1.00
2023-12-24T11:24:09.623Z,0.82
2023-12-24T11:26:36.476Z,0.77
2023-12-24T11:29:41.901Z,0.80
2023-12-24T11:32:31.661Z,1.40
2023-12-24T11:35:00.732Z,0.98
2023-12-24T11:37:32.024Z,1.15
2023-12-24T11:40:25.917Z,0.80
2023-12-24T11:42:53.473Z,1.05
2023-12-24T11:45:25.444Z,0.98
2023-12-24T11:47:54.054Z,0.90
2023-12-24T11:50:21.476Z,1.38
2023-12-24T11:52:49.241Z,1.25
2023-12-24T11:55:20.098Z,0.93
2023-12-24T11:57:47.803Z,1.20
2023-12-24T12:00:15.808Z,1.13
2023-12-24T12:02:43.568Z,1.20
2023-12-24T12:05:10.974Z,1.10
2023-12-24T12:07:37.646Z,1.20
2023-12-24T12:10:05.161Z,1.23
2023-12-24T12:12:32.042Z,1.02
2023-12-24T12:14:58.593Z,1.13
2023-12-24T12:17:30.372Z,1.20
2023-12-24T12:19:57.448Z,1.45
2023-12-24T12:22:23.983Z,1.27
2023-12-24T12:24:50.524Z,1.17
2023-12-24T12:27:17.932Z,1.05
2023-12-24T12:29:45.390Z,1.40
2023-12-24T12:32:12.023Z,1.33
2023-12-24T12:34:39.526Z,1.10
2023-12-24T12:37:06.226Z,1.27
2023-12-24T12:39:32.836Z,1.20
2023-12-24T12:41:59.765Z,1.10
2023-12-24T12:44:26.373Z,1.20
2023-12-24T12:46:53.074Z,1.05
2023-12-24T12:49:19.969Z,0.93
2023-12-24T12:51:47.507Z,0.95
2023-12-24T12:54:15.875Z,0.73
2023-12-24T12:56:44.554Z,0.77
2023-12-24T12:59:21.731Z,0.82
2023-12-24T13:01:49.432Z,1.58
2023-12-24T13:04:26.579Z,1.90
2023-12-24T13:06:54.452Z,1.48
2023-12-24T13:09:24.800Z,1.10
2023-12-24T13:11:51.815Z,1.02
2023-12-24T13:14:18.560Z,1.02
2023-12-24T13:16:45.192Z,1.05
2023-12-24T13:19:19.296Z,1.08
2023-12-24T13:21:46.307Z,1.00
2023-12-24T13:24:13.023Z,0.90
2023-12-24T13:26:39.882Z,0.80
2023-12-24T13:29:07.061Z,0.90
2023-12-24T13:31:33.993Z,0.90
2023-12-24T13:34:00.847Z,0.82
2023-12-24T13:36:27.586Z,0.80
2023-12-24T13:38:56.188Z,1.10
2023-12-24T13:41:23.152Z,1.10
2023-12-24T13:43:51.472Z,1.10
2023-12-24T13:46:20.937Z,1.00
2023-12-24T13:48:48.643Z,1.05
2023-12-24T13:51:18.547Z,0.80
2023-12-24T13:53:45.863Z,1.10
2023-12-24T13:59:05.961Z,1.20
2023-12-24T14:01:33.401Z,0.73
2023-12-24T14:04:00.012Z,1.15
2023-12-24T14:06:27.258Z,1.10
2023-12-24T14:08:54.155Z,1.10
2023-12-24T14:11:20.793Z,1.05
2023-12-24T14:13:47.707Z,0.93
2023-12-24T14:16:15.084Z,1.02
2023-12-24T14:18:42.268Z,1.20
2023-12-24T14:21:09.105Z,1.10
2023-12-24T14:23:35.892Z,1.40
2023-12-24T14:26:02.460Z,1.30
2023-12-24T14:28:29.388Z,1.20
2023-12-24T14:30:56.203Z,1.40
2023-12-24T14:33:22.817Z,1.23
2023-12-24T14:35:50.053Z,1.60
2023-12-24T14:38:16.979Z,1.67
2023-12-24T14:40:43.663Z,1.63
2023-12-24T14:43:10.602Z,1.60
2023-12-24T14:45:37.146Z,1.60
2023-12-24T14:48:04.764Z,1.50
2023-12-24T14:50:31.799Z,1.25
2023-12-24T14:52:58.517Z,1.33
2023-12-24T14:55:25.096Z,1.25
2023-12-24T14:57:52.163Z,1.70
2023-12-24T15:11:04.304Z,1.20
2023-12-24T15:13:30.860Z,1.00
2023-12-24T15:15:57.443Z,1.08
2023-12-24T15:18:24.498Z,1.20
2023-12-24T15:20:51.421Z,1.10
2023-12-24T15:23:18.168Z,0.90
2023-12-24T15:25:44.942Z,1.23
2023-12-24T15:28:11.478Z,1.30
2023-12-24T15:30:42.206Z,1.20
2023-12-24T15:33:09.360Z,1.15
2023-12-24T15:35:36.089Z,1.20
2023-12-24T15:38:03.054Z,0.90
2023-12-24T15:40:29.588Z,0.85
2023-12-24T15:42:56.794Z,1.10
2023-12-24T15:45:25.024Z,1.88
2023-12-24T15:47:52.248Z,1.77
2023-12-24T15:50:19.034Z,1.48
2023-12-24T15:52:45.667Z,1.38
2023-12-24T15:55:12.247Z,1.55
2023-12-24T15:57:38.786Z,1.58
2023-12-24T16:00:07.193Z,1.40
2023-12-24T16:02:34.057Z,1.50
2023-12-24T16:05:00.730Z,2.03
2023-12-24T16:07:28.705Z,1.67
2023-12-24T16:09:55.396Z,1.60
2023-12-24T16:12:22.168Z,2.08
2023-12-24T16:14:49.037Z,3.67
2023-12-24T16:17:15.821Z,4.75
2023-12-24T16:19:42.448Z,2.80
2023-12-24T16:22:09.203Z,2.50
2023-12-24T16:24:35.787Z,2.25
2023-12-24T16:27:04.035Z,2.40
2023-12-24T16:29:31.059Z,3.78
2023-12-24T16:31:57.675Z,2.80
2023-12-24T16:34:24.298Z,2.80
2023-12-24T16:36:51.173Z,2.40
2023-12-24T16:39:20.058Z,2.50
2023-12-24T16:41:49.180Z,2.65
2023-12-24T16:44:16.105Z,2.20
2023-12-24T16:46:42.977Z,2.40
2023-12-24T16:49:09.808Z,2.80
2023-12-24T16:51:37.100Z,2.50
2023-12-24T16:54:04.197Z,2.35
2023-12-24T16:56:30.768Z,2.25
2023-12-24T16:58:57.583Z,2.50
2023-12-24T17:01:25.148Z,2.42
2023-12-24T17:03:52.664Z,2.50
2023-12-24T17:06:19.414Z,2.80
2023-12-24T17:08:46.439Z,2.53
2023-12-24T17:11:13.053Z,2.58
2023-12-24T17:13:41.210Z,2.88
2023-12-24T17:16:07.879Z,2.78
2023-12-24T17:18:34.577Z,3.20
2023-12-24T17:21:01.243Z,3.33
2023-12-24T17:23:28.045Z,3.65
2023-12-24T17:25:54.801Z,4.30
2023-12-24T17:28:21.369Z,4.18
2023-12-24T17:30:48.198Z,3.97
2023-12-24T17:33:15.028Z,4.60
2023-12-24T17:35:41.735Z,5.35
2023-12-24T17:38:08.518Z,4.70
2023-12-24T17:40:35.347Z,5.13
2023-12-24T17:43:01.899Z,5.35
2023-12-24T17:45:28.700Z,4.70
2023-12-24T17:48:03.112Z,4.45
2023-12-24T17:50:36.141Z,4.47
2023-12-24T17:53:02.964Z,4.53
2023-12-24T17:55:29.611Z,5.03
2023-12-24T17:57:56.679Z,4.40
2023-12-24T18:00:23.290Z,4.80
2023-12-24T18:02:50.119Z,4.53
2023-12-24T18:05:17.070Z,4.88
2023-12-24T18:07:44.872Z,4.55
2023-12-24T18:10:11.589Z,3.40
2023-12-24T18:12:38.651Z,3.53
2023-12-24T18:15:06.363Z,3.00
2023-12-24T18:17:33.098Z,3.10
2023-12-24T18:19:59.730Z,2.80
2023-12-24T18:22:26.302Z,2.58
2023-12-24T18:24:52.882Z,2.30
2023-12-24T18:27:19.522Z,2.03
2023-12-24T18:29:46.232Z,1.90
2023-12-24T18:32:12.978Z,1.85
2023-12-24T18:34:41.045Z,2.20
2023-12-24T18:37:07.863Z,2.47
2023-12-24T18:39:34.466Z,2.78
2023-12-24T18:42:01.124Z,7.43
2023-12-24T18:44:27.994Z,3.10
2023-12-24T18:46:54.694Z,2.58
2023-12-24T18:49:21.367Z,2.47
2023-12-24T18:51:48.307Z,2.25
2023-12-24T18:54:15.074Z,2.20
2023-12-24T18:56:41.965Z,2.38
2023-12-24T18:59:08.651Z,2.03
2023-12-24T19:01:35.274Z,2.00
2023-12-24T19:04:02.229Z,1.98
2023-12-24T19:06:30.230Z,1.88
2023-12-24T19:09:00.028Z,2.13
2023-12-24T19:11:27.224Z,2.20
2023-12-24T19:13:54.464Z,2.00
2023-12-24T19:16:21.093Z,2.30
2023-12-24T19:18:48.171Z,2.00
2023-12-24T19:21:15.574Z,2.33
2023-12-24T19:23:42.579Z,2.80
2023-12-24T19:26:09.498Z,3.15
2023-12-24T19:28:36.813Z,3.08
2023-12-24T19:31:04.863Z,2.90
2023-12-24T19:33:32.455Z,3.15
2023-12-24T19:35:59.331Z,3.20
2023-12-24T19:38:26.220Z,3.35
2023-12-24T19:40:52.910Z,3.30
2023-12-24T19:43:19.490Z,3.60
2023-12-24T19:45:46.705Z,3.50
2023-12-24T19:48:13.659Z,3.40
2023-12-24T19:50:40.953Z,3.05
2023-12-24T19:53:07.932Z,3.20
2023-12-24T19:55:34.578Z,3.28
2023-12-24T19:58:01.156Z,3.22
2023-12-24T20:00:27.979Z,3.65
2023-12-24T20:02:55.653Z,4.10
2023-12-24T20:05:22.807Z,3.10
2023-12-24T20:07:49.783Z,3.20
2023-12-24T20:10:16.401Z,3.40
2023-12-24T20:12:43.368Z,3.00
2023-12-24T20:15:10.328Z,2.95
2023-12-24T20:17:37.196Z,3.08
2023-12-24T20:20:04.259Z,3.08
2023-12-24T20:22:30.846Z,3.35
2023-12-24T20:24:58.625Z,3.03
2023-12-24T20:27:25.161Z,3.70
2023-12-24T20:29:52.859Z,3.60
2023-12-24T20:32:20.209Z,3.40
2023-12-24T20:34:48.362Z,3.00
2023-12-24T20:37:15.106Z,3.10
2023-12-24T20:39:41.970Z,2.42
2023-12-24T20:42:09.459Z,3.00
2023-12-24T20:44:42.258Z,3.08
2023-12-24T20:47:09.359Z,2.78
2023-12-24T20:49:37.883Z,2.92
2023-12-24T20:52:06.499Z,2.70
2023-12-24T20:54:33.151Z,3.10
2023-12-24T20:57:00.069Z,2.75
2023-12-24T20:59:26.676Z,2.38
2023-12-24T21:01:56.222Z,2.80
2023-12-24T21:04:23.004Z,2.33
2023-12-24T21:06:49.573Z,3.05
2023-12-24T21:09:17.075Z,2.60
2023-12-24T21:11:44.324Z,2.10
2023-12-24T21:14:11.105Z,2.00
2023-12-24T21:16:37.853Z,2.33
2023-12-24T21:19:04.849Z,2.42
2023-12-24T21:21:33.096Z,2.28
2023-12-24T21:24:00.092Z,2.15
2023-12-24T21:26:26.985Z,2.10
2023-12-24T21:28:53.589Z,2.15
2023-12-24T21:31:20.371Z,1.80
2023-12-24T21:33:47.957Z,1.80
2023-12-24T21:36:16.277Z,1.80
2023-12-24T21:38:45.980Z,1.40
2023-12-24T21:41:13.604Z,1.73
2023-12-24T21:43:40.243Z,1.42
2023-12-24T21:46:07.396Z,1.38
2023-12-24T21:48:34.267Z,1.33
2023-12-24T21:51:01.188Z,1.40
2023-12-24T21:53:28.706Z,1.60
2023-12-24T21:55:55.360Z,1.90
2023-12-24T21:58:21.973Z,1.70
2023-12-24T22:00:52.093Z,1.67
2023-12-24T22:03:24.654Z,1.40
2023-12-24T22:05:56.689Z,1.77
2023-12-24T22:08:23.695Z,1.27
2023-12-24T22:10:50.324Z,1.23
2023-12-24T22:13:16.901Z,1.10
2023-12-24T22:15:43.509Z,1.40
2023-12-24T22:18:10.320Z,1.20
2023-12-24T22:20:37.879Z,2.20
2023-12-24T22:23:04.623Z,2.30
2023-12-24T22:25:31.328Z,1.30
2023-12-24T22:28:00.987Z,1.85
2023-12-24T22:30:28.378Z,1.83
2023-12-24T22:32:56.693Z,1.45
2023-12-24T22:35:24.714Z,1.63
2023-12-24T22:37:51.811Z,1.58
2023-12-24T22:40:18.993Z,1.98
2023-12-24T22:42:45.727Z,1.50
2023-12-24T22:45:12.307Z,1.40
2023-12-24T22:47:39.027Z,1.48
2023-12-24T22:50:06.316Z,1.42
2023-12-24T22:52:32.955Z,1.67
2023-12-24T22:54:59.693Z,1.40
2023-12-24T22:57:26.591Z,1.67
2023-12-24T22:59:53.330Z,1.40
2023-12-24T23:02:20.167Z,1.75
2023-12-24T23:04:46.890Z,1.67
2023-12-24T23:07:14.137Z,1.80
2023-12-24T23:09:42.360Z,1.50
2023-12-24T23:12:09.885Z,1.58
2023-12-24T23:14:36.796Z,1.90
2023-12-24T23:17:03.782Z,1.77
2023-12-24T23:19:34.259Z,1.90
2023-12-24T23:22:01.857Z,1.83
2023-12-24T23:24:28.761Z,1.80
2023-12-24T23:26:55.558Z,1.52
2023-12-24T23:29:22.574Z,1.50
2023-12-24T23:31:49.199Z,1.42
2023-12-24T23:34:16.375Z,1.70
2023-12-24T23:36:43.514Z,1.30
2023-12-24T23:39:10.062Z,1.20
2023-12-24T23:41:36.921Z,1.40
2023-12-24T23:44:03.636Z,1.10
2023-12-24T23:46:30.189Z,1.30
2023-12-24T23:48:56.980Z,1.58
2023-12-24T23:51:24.193Z,1.42
2023-12-24T23:53:52.000Z,1.15
2023-12-24T23:56:19.297Z,1.02
2023-12-24T23:58:46.520Z,1.00
